createdAt,value
2023-03-01T00:00:39.609Z,0.51
2023-03-01T00:01:41.682Z,0.54
2023-03-01T00:02:43.144Z,0.59
2023-03-01T00:03:44.663Z,0.59
2023-03-01T00:04:46.240Z,0.60
2023-03-01T00:05:48.261Z,0.63
2023-03-01T00:06:49.778Z,0.61
2023-03-01T00:07:54.174Z,0.58
2023-03-01T00:08:55.751Z,0.62
2023-03-01T00:09:57.390Z,0.64
2023-03-01T00:11:08.652Z,0.69
2023-03-01T00:12:10.495Z,0.62
2023-03-01T00:13:11.995Z,0.57
2023-03-01T00:14:13.998Z,0.56
2023-03-01T00:15:15.483Z,0.53
2023-03-01T00:16:26.244Z,0.53
2023-03-01T00:17:28.728Z,0.57
2023-03-01T00:18:30.397Z,0.55
2023-03-01T00:19:33.828Z,0.55
2023-03-01T00:20:35.764Z,0.53
2023-03-01T00:21:37.290Z,0.50
2023-03-01T00:22:38.708Z,0.55
2023-03-01T00:23:40.427Z,0.56
2023-03-01T00:24:42.295Z,0.59
2023-03-01T00:25:44.546Z,0.60
2023-03-01T00:26:46.125Z,0.55
2023-03-01T00:27:48.633Z,0.57
2023-03-01T00:28:50.562Z,0.50
2023-03-01T00:29:53.235Z,0.36
2023-03-01T00:30:54.753Z,0.41
2023-03-01T00:31:56.321Z,0.44
2023-03-01T00:32:57.810Z,0.44
2023-03-01T00:34:02.493Z,0.51
2023-03-01T00:35:04.194Z,0.54
2023-03-01T00:36:06.248Z,0.56
2023-03-01T00:37:07.797Z,0.50
2023-03-01T00:38:09.938Z,0.55
2023-03-01T00:39:14.502Z,0.65
2023-03-01T00:40:17.287Z,0.67
2023-03-01T00:41:20.855Z,0.69
2023-03-01T00:42:23.113Z,0.62
2023-03-01T00:43:24.574Z,0.69
2023-03-01T00:44:26.006Z,0.64
2023-03-01T00:45:28.046Z,0.64
2023-03-01T00:46:31.458Z,0.66
2023-03-01T00:47:33.067Z,0.56
2023-03-01T00:48:35.398Z,0.58
2023-03-01T00:49:37.059Z,0.68
2023-03-01T00:50:38.487Z,0.72
2023-03-01T00:51:42.346Z,0.76
2023-03-01T00:52:43.862Z,0.79
2023-03-01T00:53:46.209Z,0.77
2023-03-01T00:54:47.611Z,0.82
2023-03-01T00:55:49.127Z,0.81
2023-03-01T00:56:50.587Z,0.82
2023-03-01T00:57:52.441Z,0.76
2023-03-01T00:58:53.916Z,0.73
2023-03-01T00:59:55.397Z,0.78
2023-03-01T01:00:57.303Z,0.81
2023-03-01T01:02:00.153Z,0.71
2023-03-01T01:03:01.635Z,0.72
2023-03-01T01:04:12.360Z,0.72
2023-03-01T01:05:14.427Z,0.77
2023-03-01T01:06:21.761Z,0.75
2023-03-01T01:07:23.205Z,0.71
2023-03-01T01:08:24.651Z,0.74
2023-03-01T01:09:26.169Z,0.75
2023-03-01T01:10:27.702Z,0.79
2023-03-01T01:11:30.586Z,0.78
2023-03-01T01:12:32.527Z,0.71
2023-03-01T01:13:33.980Z,0.72
2023-03-01T01:14:36.490Z,0.74
2023-03-01T01:15:38.147Z,0.78
2023-03-01T01:16:39.840Z,0.77
2023-03-01T01:17:41.992Z,0.80
2023-03-01T01:18:44.127Z,0.80
2023-03-01T01:19:45.586Z,0.79
2023-03-01T01:20:47.011Z,0.72
2023-03-01T01:21:49.306Z,0.73
2023-03-01T01:22:52.203Z,0.75
2023-03-01T01:23:54.106Z,0.77
2023-03-01T01:24:55.556Z,0.82
2023-03-01T01:25:57.168Z,0.84
2023-03-01T01:26:58.931Z,0.73
2023-03-01T01:28:00.323Z,0.66
2023-03-01T01:29:03.847Z,0.61
2023-03-01T01:30:06.234Z,0.62
2023-03-01T01:31:07.848Z,0.68
2023-03-01T01:32:09.390Z,0.74
2023-03-01T01:33:10.908Z,0.77
2023-03-01T01:34:18.143Z,0.76
2023-03-01T01:35:19.603Z,0.72
2023-03-01T01:36:21.743Z,0.71
2023-03-01T01:37:23.230Z,0.72
2023-03-01T01:38:24.743Z,0.75
2023-03-01T01:39:26.160Z,0.75
2023-03-01T01:40:27.649Z,0.77
2023-03-01T01:41:30.172Z,0.80
2023-03-01T01:42:31.861Z,0.80
2023-03-01T01:43:42.885Z,0.88
2023-03-01T01:44:47.632Z,0.87
2023-03-01T01:45:49.727Z,0.87
2023-03-01T01:46:58.027Z,0.82
2023-03-01T01:48:11.648Z,0.74
2023-03-01T01:49:32.376Z,0.75
2023-03-01T01:50:39.279Z,0.77
2023-03-01T01:51:44.882Z,0.79
2023-03-01T01:52:49.441Z,0.76
2023-03-01T01:53:57.547Z,0.83
2023-03-01T01:55:04.199Z,0.86
2023-03-01T01:56:09.904Z,0.85
2023-03-01T01:57:20.507Z,0.79
2023-03-01T01:58:22.743Z,0.80
2023-03-01T01:59:26.254Z,0.68
2023-03-01T02:00:29.743Z,0.75
2023-03-01T02:01:31.286Z,0.76
2023-03-01T02:02:33.102Z,0.76
2023-03-01T02:03:40.758Z,0.73
2023-03-01T02:04:43.528Z,0.68
2023-03-01T02:05:55.198Z,0.71
2023-03-01T02:07:15.107Z,0.63
2023-03-01T02:08:19.385Z,0.53
2023-03-01T02:09:24.113Z,0.51
2023-03-01T02:10:26.216Z,0.49
2023-03-01T02:11:30.307Z,0.50
2023-03-01T02:12:32.289Z,0.53
2023-03-01T02:13:35.404Z,0.50
2023-03-01T02:14:36.794Z,0.55
2023-03-01T02:15:40.351Z,0.49
2023-03-01T02:16:42.531Z,0.54
2023-03-01T02:17:44.485Z,0.57
2023-03-01T02:18:47.031Z,0.57
2023-03-01T02:20:10.623Z,0.57
2023-03-01T02:21:12.042Z,0.58
2023-03-01T02:22:31.213Z,0.61
2023-03-01T02:23:34.127Z,0.55
2023-03-01T02:25:03.621Z,0.49
2023-03-01T02:26:25.186Z,0.48
2023-03-01T02:27:32.649Z,0.44
2023-03-01T02:28:39.035Z,0.45
2023-03-01T02:29:40.918Z,0.34
2023-03-01T02:31:07.334Z,0.41
2023-03-01T02:32:09.160Z,0.36
2023-03-01T02:33:10.781Z,0.36
2023-03-01T02:34:19.545Z,0.27
2023-03-01T02:35:22.188Z,0.25
2023-03-01T02:36:30.263Z,0.30
2023-03-01T02:37:32.121Z,0.38
2023-03-01T02:38:33.737Z,0.27
2023-03-01T02:39:42.984Z,0.26
2023-03-01T02:40:45.779Z,0.28
2023-03-01T02:41:50.603Z,0.30
2023-03-01T02:42:56.940Z,0.31
2023-03-01T02:43:58.773Z,0.32
2023-03-01T02:45:00.546Z,0.29
2023-03-01T02:46:09.740Z,0.15
2023-03-01T02:47:11.348Z,0.11
2023-03-01T02:48:12.774Z,0.17
2023-03-01T02:49:29.242Z,0.18
2023-03-01T02:50:30.662Z,0.23
2023-03-01T02:51:43.956Z,0.24
2023-03-01T02:53:12.377Z,0.32
2023-03-01T02:54:22.297Z,0.26
2023-03-01T02:55:23.967Z,0.29
2023-03-01T02:56:26.413Z,0.24
2023-03-01T02:57:30.149Z,0.18
2023-03-01T02:58:31.638Z,0.11
2023-03-01T02:59:40.634Z,0.14
2023-03-01T03:00:47.866Z,0.14
2023-03-01T03:01:49.384Z,0.13
2023-03-01T03:02:53.106Z,0.16
2023-03-01T03:03:54.671Z,0.16
2023-03-01T03:04:56.438Z,0.23
2023-03-01T03:05:58.521Z,0.21
2023-03-01T03:07:00.025Z,0.20
2023-03-01T03:08:04.007Z,0.19
2023-03-01T03:09:06.106Z,0.20
2023-03-01T03:10:12.351Z,0.17
2023-03-01T03:11:13.765Z,0.18
2023-03-01T03:12:15.242Z,0.17
2023-03-01T03:13:16.957Z,0.19
2023-03-01T03:14:18.945Z,0.17
2023-03-01T03:15:21.778Z,0.18
2023-03-01T03:16:23.523Z,0.21
2023-03-01T03:17:25.266Z,0.22
2023-03-01T03:18:26.952Z,0.25
2023-03-01T03:19:28.476Z,0.25
2023-03-01T03:20:30.586Z,0.27
2023-03-01T03:21:33.782Z,0.26
2023-03-01T03:22:35.245Z,0.27
2023-03-01T03:23:37.316Z,0.22
2023-03-01T03:24:39.494Z,0.21
2023-03-01T03:25:41.004Z,0.20
2023-03-01T03:26:42.497Z,0.20
2023-03-01T03:27:45.923Z,0.22
2023-03-01T03:28:47.743Z,0.23
2023-03-01T03:29:49.248Z,0.21
2023-03-01T03:30:50.944Z,0.12
2023-03-01T03:31:52.556Z,0.15
2023-03-01T03:32:54.447Z,0.19
2023-03-01T03:33:56.968Z,0.20
2023-03-01T03:34:58.426Z,0.18
2023-03-01T03:35:59.924Z,0.17
2023-03-01T03:37:01.458Z,0.25
2023-03-01T03:38:07.407Z,0.25
2023-03-01T03:39:08.962Z,0.20
2023-03-01T03:40:16.421Z,0.24
2023-03-01T03:41:18.650Z,0.23
2023-03-01T03:42:20.074Z,0.23
2023-03-01T03:43:24.060Z,0.24
2023-03-01T03:44:25.493Z,0.26
2023-03-01T03:45:27.025Z,0.28
2023-03-01T03:46:28.570Z,0.26
2023-03-01T03:47:29.982Z,0.28
2023-03-01T03:48:31.401Z,0.30
2023-03-01T03:49:32.844Z,0.29
2023-03-01T03:50:34.906Z,0.29
2023-03-01T03:51:36.357Z,0.31
2023-03-01T03:52:37.892Z,0.33
2023-03-01T03:53:39.426Z,0.31
2023-03-01T03:54:41.900Z,0.33
2023-03-01T03:55:45.347Z,0.38
2023-03-01T03:56:46.802Z,0.34
2023-03-01T03:57:55.171Z,0.39
2023-03-01T03:58:56.678Z,0.35
2023-03-01T03:59:58.233Z,0.37
2023-03-01T04:01:01.762Z,0.40
2023-03-01T04:02:03.372Z,0.36
2023-03-01T04:03:05.703Z,0.41
2023-03-01T04:04:08.812Z,0.39
2023-03-01T04:05:11.095Z,0.51
2023-03-01T04:06:12.559Z,0.51
2023-03-01T04:07:13.979Z,0.44
2023-03-01T04:08:15.547Z,0.46
2023-03-01T04:09:17.716Z,0.45
2023-03-01T04:10:19.845Z,0.39
2023-03-01T04:11:27.108Z,0.41
2023-03-01T04:12:28.544Z,0.40
2023-03-01T04:13:30.520Z,0.48
2023-03-01T04:14:32.050Z,0.51
2023-03-01T04:15:34.354Z,0.48
2023-03-01T04:16:35.822Z,0.47
2023-03-01T04:17:37.300Z,0.44
2023-03-01T04:18:38.868Z,0.45
2023-03-01T04:19:40.843Z,0.44
2023-03-01T04:20:43.758Z,0.31
2023-03-01T04:21:45.218Z,0.35
2023-03-01T04:22:47.973Z,0.45
2023-03-01T04:23:49.471Z,0.49
2023-03-01T04:24:51.214Z,0.49
2023-03-01T04:25:55.867Z,0.41
2023-03-01T04:26:57.358Z,0.39
2023-03-01T04:27:58.798Z,0.39
2023-03-01T04:29:00.853Z,0.45
2023-03-01T04:30:04.409Z,0.44
2023-03-01T04:31:15.048Z,0.45
2023-03-01T04:32:17.596Z,0.36
2023-03-01T04:33:19.693Z,0.40
2023-03-01T04:34:21.462Z,0.43
2023-03-01T04:35:23.022Z,0.39
2023-03-01T04:36:27.941Z,0.39
2023-03-01T04:37:30.668Z,0.48
2023-03-01T04:38:32.414Z,0.48
2023-03-01T04:39:34.225Z,0.48
2023-03-01T04:40:36.045Z,0.44
2023-03-01T04:41:37.512Z,0.28
2023-03-01T04:42:39.056Z,0.25
2023-03-01T04:43:40.574Z,0.22
2023-03-01T04:44:42.385Z,0.27
2023-03-01T04:45:44.100Z,0.20
2023-03-01T04:46:45.631Z,0.24
2023-03-01T04:47:48.062Z,0.29
2023-03-01T04:48:50.169Z,0.35
2023-03-01T04:49:51.604Z,0.39
2023-03-01T04:50:53.076Z,0.43
2023-03-01T04:51:54.510Z,0.47
2023-03-01T04:52:59.398Z,0.51
2023-03-01T04:54:01.471Z,0.52
2023-03-01T04:55:04.539Z,0.45
2023-03-01T04:56:06.143Z,0.43
2023-03-01T04:57:07.516Z,0.41
2023-03-01T04:58:08.959Z,0.32
2023-03-01T04:59:13.606Z,0.30
2023-03-01T05:00:21.351Z,0.26
2023-03-01T05:01:23.025Z,0.31
2023-03-01T05:02:24.656Z,0.32
2023-03-01T05:03:26.325Z,0.26
2023-03-01T05:04:27.987Z,0.28
2023-03-01T05:05:33.499Z,0.32
2023-03-01T05:06:35.190Z,0.30
2023-03-01T05:07:36.616Z,0.31
2023-03-01T05:08:39.510Z,0.29
2023-03-01T05:09:40.926Z,0.32
2023-03-01T05:10:43.074Z,0.33
2023-03-01T05:11:44.633Z,0.19
2023-03-01T05:12:47.698Z,0.16
2023-03-01T05:13:51.258Z,0.15
2023-03-01T05:14:52.696Z,0.13
2023-03-01T05:15:59.209Z,0.18
2023-03-01T05:17:04.921Z,0.22
2023-03-01T05:18:12.306Z,0.25
2023-03-01T05:19:16.546Z,0.30
2023-03-01T05:20:18.269Z,0.32
2023-03-01T05:21:19.768Z,0.29
2023-03-01T05:22:21.324Z,0.28
2023-03-01T05:23:24.211Z,0.25
2023-03-01T05:24:25.842Z,0.22
2023-03-01T05:25:27.918Z,0.22
2023-03-01T05:26:29.684Z,0.18
2023-03-01T05:27:31.243Z,0.20
2023-03-01T05:28:33.673Z,0.17
2023-03-01T05:29:36.224Z,0.15
2023-03-01T05:30:40.034Z,0.15
2023-03-01T05:31:42.061Z,0.14
2023-03-01T05:32:45.401Z,0.15
2023-03-01T05:33:46.857Z,0.18
2023-03-01T05:34:48.475Z,0.18
2023-03-01T05:35:51.202Z,0.09
2023-03-01T05:36:54.071Z,0.08
2023-03-01T05:37:55.524Z,0.13
2023-03-01T05:38:57.307Z,0.16
2023-03-01T05:39:59.013Z,0.20
2023-03-01T05:41:00.600Z,0.25
2023-03-01T05:42:02.366Z,0.28
2023-03-01T05:43:06.152Z,0.31
2023-03-01T05:44:08.255Z,0.25
2023-03-01T05:45:10.638Z,0.25
2023-03-01T05:46:14.370Z,0.23
2023-03-01T05:47:16.074Z,0.12
2023-03-01T05:48:17.657Z,0.15
2023-03-01T05:49:19.655Z,0.20
2023-03-01T05:50:26.184Z,0.24
2023-03-01T05:51:27.679Z,0.24
2023-03-01T05:52:29.151Z,0.21
2023-03-01T05:53:30.854Z,0.15
2023-03-01T05:54:32.325Z,0.13
2023-03-01T05:55:33.968Z,0.15
2023-03-01T05:56:36.779Z,0.14
2023-03-01T05:57:38.182Z,0.14
2023-03-01T05:58:39.725Z,0.14
2023-03-01T05:59:41.657Z,0.15
2023-03-01T06:00:44.707Z,0.18
2023-03-01T06:01:46.168Z,0.24
2023-03-01T06:02:47.630Z,0.22
2023-03-01T06:03:49.124Z,0.18
2023-03-01T06:04:50.665Z,0.15
2023-03-01T06:05:57.307Z,0.12
2023-03-01T06:06:58.714Z,-0.03
2023-03-01T06:08:01.479Z,-0.03
2023-03-01T06:09:03.016Z,0.01
2023-03-01T06:10:06.213Z,-0.03
2023-03-01T06:11:08.652Z,0.04
2023-03-01T06:12:10.094Z,0.01
2023-03-01T06:13:11.593Z,0.01
2023-03-01T06:14:15.968Z,0.06
2023-03-01T06:15:17.616Z,0.04
2023-03-01T06:16:19.050Z,0.06
2023-03-01T06:17:20.479Z,0.05
2023-03-01T06:18:22.007Z,0.06
2023-03-01T06:19:23.504Z,0.09
2023-03-01T06:20:27.051Z,0.12
2023-03-01T06:21:28.540Z,0.10
2023-03-01T06:22:30.016Z,0.04
2023-03-01T06:23:31.661Z,0.06
2023-03-01T06:24:34.166Z,0.02
2023-03-01T06:25:35.631Z,0.03
2023-03-01T06:26:37.086Z,0.07
2023-03-01T06:27:38.542Z,0.11
2023-03-01T06:28:40.411Z,0.08
2023-03-01T06:29:42.780Z,0.09
2023-03-01T06:30:44.339Z,0.10
2023-03-01T06:31:46.802Z,0.12
2023-03-01T06:32:48.996Z,0.10
2023-03-01T06:33:50.785Z,0.13
2023-03-01T06:34:52.546Z,0.11
2023-03-01T06:35:57.624Z,0.09
2023-03-01T06:36:59.173Z,0.11
2023-03-01T06:38:02.523Z,0.14
2023-03-01T06:39:04.041Z,0.10
2023-03-01T06:40:12.059Z,0.05
2023-03-01T06:41:13.554Z,0.09
2023-03-01T06:42:15.027Z,0.05
2023-03-01T06:43:16.514Z,0.10
2023-03-01T06:44:18.028Z,0.14
2023-03-01T06:45:20.996Z,0.03
2023-03-01T06:46:22.651Z,0.04
2023-03-01T06:47:24.751Z,0.12
2023-03-01T06:48:26.239Z,0.17
2023-03-01T06:49:27.953Z,0.20
2023-03-01T06:50:29.545Z,0.18
2023-03-01T06:51:31.142Z,0.22
2023-03-01T06:52:32.734Z,0.30
2023-03-01T06:53:34.237Z,0.30
2023-03-01T06:54:35.718Z,0.22
2023-03-01T06:55:37.263Z,0.26
2023-03-01T06:56:39.518Z,0.35
2023-03-01T06:57:41.475Z,0.43
2023-03-01T06:58:42.993Z,0.46
2023-03-01T06:59:44.535Z,0.50
2023-03-01T07:00:46.085Z,0.53
2023-03-01T07:01:47.614Z,0.48
2023-03-01T07:02:49.191Z,0.49
2023-03-01T07:03:50.704Z,0.55
2023-03-01T07:04:52.863Z,0.53
2023-03-01T07:05:54.522Z,0.60
2023-03-01T07:06:56.251Z,0.72
2023-03-01T07:07:58.209Z,0.78
2023-03-01T07:08:59.765Z,0.84
2023-03-01T07:10:01.274Z,0.72
2023-03-01T07:11:06.765Z,0.72
2023-03-01T07:12:08.901Z,0.76
2023-03-01T07:13:10.470Z,0.69
2023-03-01T07:14:11.966Z,0.65
2023-03-01T07:15:13.467Z,0.71
2023-03-01T07:16:15.759Z,0.83
2023-03-01T07:17:17.422Z,0.91
2023-03-01T07:18:19.140Z,0.92
2023-03-01T07:19:21.324Z,1.00
2023-03-01T07:20:25.571Z,1.13
2023-03-01T07:21:27.181Z,1.19
2023-03-01T07:22:28.729Z,1.13
2023-03-01T07:23:31.357Z,1.14
2023-03-01T07:24:32.836Z,1.23
2023-03-01T07:25:34.729Z,1.26
2023-03-01T07:26:36.758Z,1.29
2023-03-01T07:27:38.293Z,1.32
2023-03-01T07:28:40.755Z,1.29
2023-03-01T07:29:42.190Z,1.33
2023-03-01T07:30:43.740Z,1.41
2023-03-01T07:31:45.498Z,1.48
2023-03-01T07:32:47.737Z,1.53
2023-03-01T07:33:49.650Z,1.52
2023-03-01T07:34:52.669Z,1.61
2023-03-01T07:36:02.372Z,1.65
2023-03-01T07:37:03.983Z,1.72
2023-03-01T07:38:05.501Z,1.82
2023-03-01T07:39:07.569Z,1.88
2023-03-01T07:40:10.347Z,1.85
2023-03-01T07:41:11.996Z,1.82
2023-03-01T07:42:13.507Z,1.81
2023-03-01T07:43:15.039Z,1.85
2023-03-01T07:44:17.515Z,1.91
2023-03-01T07:45:19.269Z,1.95
2023-03-01T07:46:21.161Z,2.04
2023-03-01T07:47:22.605Z,2.05
2023-03-01T07:48:24.174Z,2.01
2023-03-01T07:49:27.384Z,1.85
2023-03-01T07:50:28.892Z,1.92
2023-03-01T07:51:30.468Z,2.01
2023-03-01T07:52:32.109Z,2.08
2023-03-01T07:53:35.174Z,2.19
2023-03-01T07:54:36.639Z,2.19
2023-03-01T07:55:38.182Z,2.14
2023-03-01T07:56:39.680Z,2.08
2023-03-01T07:57:41.162Z,2.11
2023-03-01T07:58:44.336Z,2.16
2023-03-01T07:59:45.904Z,2.23
2023-03-01T08:00:47.335Z,2.36
2023-03-01T08:01:48.827Z,2.38
2023-03-01T08:02:50.380Z,2.31
2023-03-01T08:03:51.845Z,2.37
2023-03-01T08:04:53.303Z,2.48
2023-03-01T08:05:54.795Z,2.61
2023-03-01T08:06:56.803Z,2.78
2023-03-01T08:07:58.508Z,2.94
2023-03-01T08:08:59.966Z,3.28
2023-03-01T08:10:01.841Z,3.75
2023-03-01T08:11:05.563Z,4.36
2023-03-01T08:12:07.477Z,5.11
2023-03-01T08:13:09.223Z,5.40
2023-03-01T08:14:11.557Z,5.63
2023-03-01T08:15:13.239Z,5.83
2023-03-01T08:16:16.300Z,6.10
2023-03-01T08:17:17.654Z,6.43
2023-03-01T08:18:20.083Z,7.28
2023-03-01T08:19:21.701Z,7.88
2023-03-01T08:20:23.227Z,8.15
2023-03-01T08:21:24.693Z,8.09
2023-03-01T08:22:26.153Z,8.33
2023-03-01T08:23:27.742Z,8.71
2023-03-01T08:24:29.849Z,8.76
2023-03-01T08:25:31.322Z,8.01
2023-03-01T08:26:33.896Z,7.51
2023-03-01T08:27:35.373Z,7.19
2023-03-01T08:28:37.786Z,7.11
2023-03-01T08:29:39.238Z,6.90
2023-03-01T08:30:40.663Z,6.65
2023-03-01T08:31:42.198Z,6.41
2023-03-01T08:32:43.860Z,6.46
2023-03-01T08:33:51.582Z,6.00
2023-03-01T08:34:53.147Z,5.80
2023-03-01T08:36:07.857Z,5.45
2023-03-01T08:37:10.752Z,5.28
2023-03-01T08:38:12.192Z,4.80
2023-03-01T08:39:16.476Z,4.56
2023-03-01T08:40:18.152Z,4.17
2023-03-01T08:41:20.615Z,4.01
2023-03-01T08:42:22.046Z,3.85
2023-03-01T08:43:26.452Z,4.03
2023-03-01T08:44:28.001Z,4.32
2023-03-01T08:45:29.488Z,4.52
2023-03-01T08:46:39.820Z,4.76
2023-03-01T08:47:41.401Z,4.91
2023-03-01T08:48:44.155Z,4.99
2023-03-01T08:49:45.715Z,5.05
2023-03-01T08:50:47.280Z,5.02
2023-03-01T08:51:49.610Z,5.11
2023-03-01T08:52:51.945Z,5.13
2023-03-01T08:53:53.760Z,5.10
2023-03-01T08:54:55.236Z,5.19
2023-03-01T08:56:00.476Z,5.25
2023-03-01T08:57:05.281Z,5.27
2023-03-01T08:58:06.826Z,5.09
2023-03-01T08:59:08.737Z,5.04
2023-03-01T09:00:15.925Z,5.10
2023-03-01T09:01:19.429Z,5.25
2023-03-01T09:02:21.510Z,5.25
2023-03-01T09:03:24.869Z,5.32
2023-03-01T09:04:26.317Z,5.42
2023-03-01T09:05:27.801Z,5.30
2023-03-01T09:06:33.985Z,5.44
2023-03-01T09:07:35.548Z,5.48
2023-03-01T09:08:42.149Z,5.54
2023-03-01T09:09:43.612Z,5.54
2023-03-01T09:10:45.417Z,5.58
2023-03-01T09:11:47.869Z,5.63
2023-03-01T09:12:49.354Z,5.77
2023-03-01T09:13:51.131Z,5.86
2023-03-01T09:14:52.592Z,5.98
2023-03-01T09:15:54.056Z,6.12
2023-03-01T09:16:55.991Z,6.04
2023-03-01T09:17:57.492Z,6.19
2023-03-01T09:18:59.039Z,6.26
2023-03-01T09:20:00.737Z,6.38
2023-03-01T09:21:30.628Z,6.40
2023-03-01T09:22:40.483Z,6.30
2023-03-01T09:23:45.137Z,6.28
2023-03-01T09:24:46.779Z,5.64
2023-03-01T09:25:48.542Z,5.22
2023-03-01T09:26:51.790Z,5.44
2023-03-01T09:27:54.309Z,5.54
2023-03-01T09:28:57.100Z,5.50
2023-03-01T09:29:58.554Z,5.65
2023-03-01T09:31:01.129Z,5.96
2023-03-01T09:32:03.206Z,5.97
2023-03-01T09:33:04.882Z,6.23
2023-03-01T09:34:07.335Z,6.21
2023-03-01T09:35:09.389Z,5.92
2023-03-01T09:36:18.782Z,5.83
2023-03-01T09:37:20.326Z,5.72
2023-03-01T09:38:21.815Z,5.90
2023-03-01T09:39:23.448Z,5.99
2023-03-01T09:40:29.313Z,6.16
2023-03-01T09:41:45.958Z,6.04
2023-03-01T09:42:59.748Z,6.23
2023-03-01T09:44:07.044Z,6.60
2023-03-01T09:45:26.843Z,6.79
2023-03-01T09:46:28.560Z,6.84
2023-03-01T09:47:37.458Z,6.61
2023-03-01T09:49:06.563Z,6.71
2023-03-01T09:50:15.039Z,6.77
2023-03-01T09:51:29.241Z,6.87
2023-03-01T09:52:40.893Z,6.86
2023-03-01T09:53:42.510Z,6.79
2023-03-01T09:54:43.994Z,6.82
2023-03-01T09:55:50.754Z,6.70
2023-03-01T09:57:14.658Z,6.79
2023-03-01T09:58:19.039Z,6.82
2023-03-01T09:59:34.873Z,6.86
2023-03-01T10:00:50.215Z,6.88
2023-03-01T10:01:54.587Z,6.85
2023-03-01T10:03:10.968Z,6.85
2023-03-01T10:04:26.492Z,6.80
2023-03-01T10:05:46.609Z,6.46
2023-03-01T10:06:59.141Z,6.60
2023-03-01T10:08:16.233Z,6.64
2023-03-01T10:09:18.913Z,6.65
2023-03-01T10:10:35.702Z,6.68
2023-03-01T10:11:40.735Z,6.76
2023-03-01T10:12:45.536Z,6.67
2023-03-01T10:14:21.274Z,6.41
2023-03-01T10:15:43.071Z,6.38
2023-03-01T10:16:59.998Z,6.27
2023-03-01T10:18:08.663Z,6.16
2023-03-01T10:19:28.002Z,6.29
2023-03-01T10:20:59.209Z,6.41
2023-03-01T10:22:11.205Z,6.51
2023-03-01T10:23:13.094Z,6.58
2023-03-01T10:24:19.956Z,6.60
2023-03-01T10:25:41.768Z,6.58
2023-03-01T10:27:03.870Z,6.79
2023-03-01T10:28:39.180Z,6.99
2023-03-01T10:30:05.072Z,7.20
2023-03-01T10:31:14.915Z,7.46
2023-03-01T10:32:18.265Z,7.68
2023-03-01T10:33:27.773Z,7.90
2023-03-01T10:34:32.237Z,7.82
2023-03-01T10:35:34.751Z,7.75
2023-03-01T10:36:39.136Z,7.74
2023-03-01T10:37:58.142Z,7.50
2023-03-01T10:39:02.274Z,7.57
2023-03-01T10:40:09.354Z,7.66
2023-03-01T10:41:10.958Z,7.73
2023-03-01T10:42:27.801Z,7.69
2023-03-01T10:43:45.100Z,7.72
2023-03-01T10:44:48.944Z,7.72
2023-03-01T10:45:51.320Z,7.65
2023-03-01T10:47:02.130Z,7.66
2023-03-01T10:48:11.254Z,7.64
2023-03-01T10:49:19.132Z,7.59
2023-03-01T10:50:23.710Z,7.57
2023-03-01T10:51:25.238Z,7.54
2023-03-01T10:52:36.410Z,7.39
2023-03-01T10:53:50.336Z,7.33
2023-03-01T10:54:59.176Z,7.32
2023-03-01T10:56:06.903Z,7.24
2023-03-01T10:57:29.756Z,6.64
2023-03-01T10:58:32.676Z,6.56
2023-03-01T10:59:37.225Z,6.65
2023-03-01T11:01:01.306Z,6.37
2023-03-01T11:02:29.258Z,6.32
2023-03-01T11:03:39.674Z,6.21
2023-03-01T11:04:43.239Z,6.31
2023-03-01T11:05:58.832Z,6.33
2023-03-01T11:07:01.875Z,6.44
2023-03-01T11:08:04.509Z,6.53
2023-03-01T11:09:24.023Z,6.62
2023-03-01T11:10:32.626Z,6.43
2023-03-01T11:11:36.022Z,6.29
2023-03-01T11:12:37.679Z,6.18
2023-03-01T11:13:58.049Z,6.33
2023-03-01T11:14:59.644Z,6.24
2023-03-01T11:16:13.381Z,6.06
2023-03-01T11:17:36.568Z,6.27
2023-03-01T11:18:48.034Z,6.38
2023-03-01T11:20:08.354Z,6.63
2023-03-01T11:21:10.790Z,6.82
2023-03-01T11:22:18.979Z,7.06
2023-03-01T11:23:21.735Z,7.46
2023-03-01T11:24:31.315Z,7.96
2023-03-01T11:25:37.734Z,8.29
2023-03-01T11:26:45.589Z,8.86
2023-03-01T11:27:48.018Z,9.23
2023-03-01T11:28:55.358Z,9.54
2023-03-01T11:30:00.581Z,9.65
2023-03-01T11:31:09.818Z,9.72
2023-03-01T11:32:14.702Z,9.72
2023-03-01T11:33:34.570Z,9.75
2023-03-01T11:34:48.370Z,9.64
2023-03-01T11:36:35.683Z,9.30
2023-03-01T11:38:06.914Z,9.28
2023-03-01T11:39:28.642Z,8.98
2023-03-01T11:40:45.761Z,8.92
2023-03-01T11:41:53.385Z,8.67
2023-03-01T11:43:10.660Z,8.62
2023-03-01T11:44:25.932Z,8.58
2023-03-01T11:45:39.850Z,8.46
2023-03-01T11:47:09.627Z,8.44
2023-03-01T11:48:48.922Z,8.44
2023-03-01T11:49:51.807Z,8.45
2023-03-01T11:50:55.614Z,8.48
2023-03-01T11:52:00.302Z,8.44
2023-03-01T11:53:53.758Z,8.45
2023-03-01T11:55:28.689Z,8.30
2023-03-01T11:56:36.495Z,8.25
2023-03-01T11:58:04.599Z,8.28
2023-03-01T11:59:28.258Z,8.25
2023-03-01T12:00:53.980Z,8.37
2023-03-01T12:02:33.503Z,8.42
2023-03-01T12:04:17.383Z,8.42
2023-03-01T12:05:26.597Z,8.51
2023-03-01T12:06:41.544Z,8.53
2023-03-01T12:08:09.749Z,8.51
2023-03-01T12:09:40.906Z,8.39
2023-03-01T12:10:52.324Z,8.30
2023-03-01T12:12:10.879Z,8.01
2023-03-01T12:13:50.313Z,8.08
2023-03-01T12:15:18.964Z,8.15
2023-03-01T12:16:41.635Z,8.20
2023-03-01T12:17:43.043Z,8.27
2023-03-01T12:19:03.282Z,8.34
2023-03-01T12:20:22.080Z,8.43
2023-03-01T12:21:32.669Z,8.40
2023-03-01T12:22:53.846Z,8.39
2023-03-01T12:24:14.142Z,8.48
2023-03-01T12:25:33.989Z,8.53
2023-03-01T12:26:50.655Z,8.44
2023-03-01T12:28:13.369Z,8.35
2023-03-01T12:29:26.953Z,8.49
2023-03-01T12:31:02.397Z,8.60
2023-03-01T12:32:20.386Z,8.57
2023-03-01T12:33:54.355Z,8.68
2023-03-01T12:35:19.717Z,8.81
2023-03-01T12:36:59.144Z,8.97
2023-03-01T12:38:38.624Z,8.93
2023-03-01T12:39:52.449Z,9.08
2023-03-01T12:41:12.287Z,9.10
2023-03-01T12:42:53.039Z,8.97
2023-03-01T12:44:18.978Z,9.04
2023-03-01T12:45:54.609Z,8.94
2023-03-01T12:47:25.301Z,8.56
2023-03-01T12:48:38.512Z,8.69
2023-03-01T12:49:49.477Z,8.98
2023-03-01T12:50:59.196Z,9.35
2023-03-01T12:52:10.411Z,9.64
2023-03-01T12:53:24.155Z,10.00
2023-03-01T12:54:32.231Z,10.32
2023-03-01T12:55:43.977Z,10.58
2023-03-01T12:56:53.118Z,10.95
2023-03-01T12:58:01.856Z,11.25
2023-03-01T12:59:09.941Z,11.53
2023-03-01T13:00:17.485Z,11.76
2023-03-01T13:01:43.851Z,12.17
2023-03-01T13:03:01.438Z,12.29
2023-03-01T13:04:40.401Z,12.47
2023-03-01T13:06:01.687Z,12.27
2023-03-01T13:07:15.302Z,11.91
2023-03-01T13:08:24.665Z,11.66
2023-03-01T13:09:50.648Z,11.60
2023-03-01T13:11:03.204Z,11.50
2023-03-01T13:12:12.993Z,11.29
2023-03-01T13:13:35.104Z,10.76
2023-03-01T13:14:37.661Z,10.45
2023-03-01T13:15:41.314Z,10.05
2023-03-01T13:16:45.919Z,9.99
2023-03-01T13:17:47.487Z,9.99
2023-03-01T13:18:49.153Z,10.17
2023-03-01T13:19:59.170Z,10.34
2023-03-01T13:21:03.286Z,10.39
2023-03-01T13:22:30.119Z,10.58
2023-03-01T13:23:35.177Z,10.62
2023-03-01T13:24:42.651Z,10.67
2023-03-01T13:26:03.000Z,10.70
2023-03-01T13:27:09.315Z,10.63
2023-03-01T13:28:37.709Z,10.74
2023-03-01T13:29:46.491Z,10.89
2023-03-01T13:30:47.955Z,11.00
2023-03-01T13:31:49.451Z,10.94
2023-03-01T13:32:51.153Z,11.06
2023-03-01T13:33:53.076Z,11.19
2023-03-01T13:35:03.024Z,11.14
2023-03-01T13:36:04.707Z,11.11
2023-03-01T13:37:31.543Z,11.10
2023-03-01T13:38:56.284Z,11.30
2023-03-01T13:40:04.452Z,11.54
2023-03-01T13:41:06.356Z,11.77
2023-03-01T13:42:38.899Z,11.87
2023-03-01T13:43:43.296Z,12.03
2023-03-01T13:44:44.968Z,11.99
2023-03-01T13:45:53.444Z,12.14
2023-03-01T13:47:00.244Z,12.33
2023-03-01T13:48:16.211Z,12.24
2023-03-01T13:49:21.083Z,12.04
2023-03-01T13:50:38.159Z,12.26
2023-03-01T13:51:40.097Z,12.38
2023-03-01T13:52:45.188Z,12.65
2023-03-01T13:53:48.701Z,12.87
2023-03-01T13:54:50.419Z,13.01
2023-03-01T13:56:02.887Z,13.22
2023-03-01T13:57:05.224Z,13.25
2023-03-01T13:58:26.205Z,13.39
2023-03-01T13:59:28.079Z,13.52
2023-03-01T14:00:40.173Z,13.56
2023-03-01T14:01:43.677Z,13.80
2023-03-01T14:02:45.456Z,13.89
2023-03-01T14:03:46.943Z,13.97
2023-03-01T14:04:58.064Z,14.20
2023-03-01T14:06:22.654Z,14.27
2023-03-01T14:07:25.324Z,14.45
2023-03-01T14:08:29.264Z,14.67
2023-03-01T14:09:32.548Z,14.53
2023-03-01T14:10:49.486Z,14.53
2023-03-01T14:12:05.720Z,14.48
2023-03-01T14:13:26.398Z,14.39
2023-03-01T14:14:46.907Z,14.14
2023-03-01T14:16:07.001Z,14.37
2023-03-01T14:17:14.601Z,14.48
2023-03-01T14:18:23.484Z,14.43
2023-03-01T14:19:34.174Z,14.52
2023-03-01T14:20:52.159Z,14.68
2023-03-01T14:22:23.166Z,14.85
2023-03-01T14:23:25.187Z,14.73
2023-03-01T14:24:28.340Z,14.50
2023-03-01T14:25:33.450Z,14.37
2023-03-01T14:26:37.621Z,13.94
2023-03-01T14:27:43.072Z,14.19
2023-03-01T14:28:44.715Z,14.42
2023-03-01T14:29:56.204Z,14.56
2023-03-01T14:31:03.123Z,14.60
2023-03-01T14:32:21.001Z,14.55
2023-03-01T14:33:31.415Z,14.05
2023-03-01T14:34:33.692Z,14.01
2023-03-01T14:35:37.963Z,14.01
2023-03-01T14:36:39.415Z,13.84
2023-03-01T14:37:41.022Z,13.63
2023-03-01T14:38:45.882Z,13.44